createdAt,value
2023-05-23T00:00:54.089Z,5.30
2023-05-23T00:03:23.017Z,5.50
2023-05-23T00:05:50.865Z,5.85
2023-05-23T00:08:17.922Z,5.72
2023-05-23T00:10:45.313Z,5.63
2023-05-23T00:13:15.339Z,5.93
2023-05-23T00:15:42.553Z,5.10
2023-05-23T00:18:11.799Z,5.35
2023-05-23T00:20:40.942Z,6.32
2023-05-23T00:23:09.911Z,5.80
2023-05-23T00:25:37.204Z,6.75
2023-05-23T00:28:04.964Z,6.63
2023-05-23T00:30:33.528Z,5.80
2023-05-23T00:33:00.719Z,5.97
2023-05-23T00:35:27.935Z,6.18
2023-05-23T00:37:55.634Z,5.40
2023-05-23T00:40:23.692Z,5.57
2023-05-23T00:42:50.383Z,5.63
2023-05-23T00:45:17.875Z,5.72
2023-05-23T00:47:45.290Z,5.25
2023-05-23T00:50:14.692Z,5.60
2023-05-23T00:52:43.067Z,5.53
2023-05-23T00:55:10.413Z,4.80
2023-05-23T00:57:41.680Z,6.00
2023-05-23T01:00:10.184Z,5.40
2023-05-23T01:02:45.098Z,6.22
2023-05-23T01:05:14.915Z,5.72
2023-05-23T01:07:41.747Z,6.35
2023-05-23T01:10:10.149Z,5.75
2023-05-23T01:12:46.451Z,5.55
2023-05-23T01:15:16.929Z,5.80
2023-05-23T01:18:08.388Z,6.05
2023-05-23T01:20:40.170Z,6.05
2023-05-23T01:23:34.133Z,6.07
2023-05-23T01:26:32.703Z,5.60
2023-05-23T01:29:10.541Z,5.63
2023-05-23T01:31:42.947Z,5.75
2023-05-23T01:34:10.678Z,5.20
2023-05-23T01:36:42.502Z,6.18
2023-05-23T01:39:09.445Z,6.47
2023-05-23T01:41:36.714Z,5.97
2023-05-23T01:44:04.160Z,5.65
2023-05-23T01:46:32.892Z,5.40
2023-05-23T01:49:02.410Z,6.28
2023-05-23T01:51:30.625Z,5.90
2023-05-23T01:53:57.984Z,4.80
2023-05-23T01:56:25.125Z,5.95
2023-05-23T01:58:51.878Z,6.20
2023-05-23T02:01:18.911Z,6.00
2023-05-23T02:03:45.835Z,6.05
2023-05-23T02:06:12.526Z,5.55
2023-05-23T02:08:39.270Z,6.35
2023-05-23T02:11:05.936Z,6.13
2023-05-23T02:13:32.496Z,6.25
2023-05-23T02:15:59.162Z,6.60
2023-05-23T02:18:29.989Z,5.78
2023-05-23T02:20:56.961Z,5.70
2023-05-23T02:23:23.544Z,5.65
2023-05-23T02:25:50.180Z,5.75
2023-05-23T02:28:16.796Z,5.93
2023-05-23T02:30:43.368Z,6.05
2023-05-23T02:33:10.942Z,5.68
2023-05-23T02:35:37.533Z,5.45
2023-05-23T02:38:04.194Z,5.60
2023-05-23T02:40:30.763Z,5.95
2023-05-23T02:42:57.919Z,5.75
2023-05-23T02:45:24.811Z,5.72
2023-05-23T02:47:51.439Z,5.60
2023-05-23T02:50:18.034Z,5.50
2023-05-23T02:52:45.043Z,5.90
2023-05-23T02:55:11.619Z,5.70
2023-05-23T02:57:38.153Z,6.50
2023-05-23T03:00:05.178Z,5.80
2023-05-23T03:02:31.844Z,5.90
2023-05-23T03:04:59.191Z,5.68
2023-05-23T03:07:28.461Z,6.53
2023-05-23T03:09:56.621Z,6.40
2023-05-23T03:12:23.207Z,6.40
2023-05-23T03:14:49.808Z,6.05
2023-05-23T03:17:16.594Z,6.72
2023-05-23T03:19:43.216Z,6.40
2023-05-23T03:22:09.859Z,6.97
2023-05-23T03:24:36.673Z,6.57
2023-05-23T03:27:03.382Z,6.63
2023-05-23T03:29:30.782Z,7.53
2023-05-23T03:31:57.407Z,7.05
2023-05-23T03:34:26.477Z,7.72
2023-05-23T03:36:53.314Z,7.15
2023-05-23T03:39:19.939Z,7.40
2023-05-23T03:41:46.572Z,7.22
2023-05-23T03:44:14.726Z,8.13
2023-05-23T03:46:41.632Z,7.70
2023-05-23T03:49:08.319Z,8.15
2023-05-23T03:51:34.907Z,7.93
2023-05-23T03:54:02.129Z,9.32
2023-05-23T03:56:28.743Z,8.30
2023-05-23T03:58:55.458Z,8.07
2023-05-23T04:01:22.241Z,8.20
2023-05-23T04:03:49.390Z,8.95
2023-05-23T04:06:17.360Z,9.20
2023-05-23T04:08:44.075Z,9.30
2023-05-23T04:11:10.808Z,7.47
2023-05-23T04:13:38.339Z,8.45
2023-05-23T04:16:05.969Z,8.82
2023-05-23T04:18:39.175Z,9.35
2023-05-23T04:21:06.213Z,8.07
2023-05-23T04:23:33.675Z,8.30
2023-05-23T04:26:00.573Z,8.57
2023-05-23T04:28:27.874Z,8.13
2023-05-23T04:30:54.598Z,8.55
2023-05-23T04:33:21.759Z,8.65
2023-05-23T04:35:49.403Z,8.65
2023-05-23T04:38:16.033Z,7.55
2023-05-23T04:40:43.012Z,8.57
2023-05-23T04:43:10.211Z,7.75
2023-05-23T04:45:36.814Z,8.85
2023-05-23T04:48:03.883Z,8.30
2023-05-23T04:50:33.265Z,7.53
2023-05-23T04:52:59.984Z,8.30
2023-05-23T04:55:26.732Z,8.75
2023-05-23T04:57:53.555Z,8.20
2023-05-23T05:00:20.503Z,8.40
2023-05-23T05:02:47.111Z,8.00
2023-05-23T05:05:13.734Z,7.78
2023-05-23T05:07:40.682Z,8.00
2023-05-23T05:10:08.049Z,7.95
2023-05-23T05:12:34.828Z,7.90
2023-05-23T05:15:03.466Z,7.72
2023-05-23T05:17:30.280Z,7.55
2023-05-23T05:19:57.038Z,8.25
2023-05-23T05:22:24.005Z,8.18
2023-05-23T05:24:50.646Z,8.43
2023-05-23T05:27:17.223Z,8.57
2023-05-23T05:29:44.105Z,8.60
2023-05-23T05:32:10.727Z,8.65
2023-05-23T05:34:38.187Z,8.93
2023-05-23T05:37:05.104Z,8.25
2023-05-23T05:39:31.694Z,8.38
2023-05-23T05:41:59.371Z,8.73
2023-05-23T05:44:27.120Z,8.63
2023-05-23T05:46:53.764Z,8.80
2023-05-23T05:49:20.334Z,9.75
2023-05-23T05:51:46.965Z,10.45
2023-05-23T05:54:13.552Z,10.07
2023-05-23T05:56:40.653Z,9.68
2023-05-23T05:59:07.209Z,9.38
2023-05-23T06:01:34.915Z,9.35
2023-05-23T06:04:01.745Z,9.63
2023-05-23T06:06:28.424Z,11.02
2023-05-23T06:08:55.098Z,10.25
2023-05-23T06:11:21.723Z,10.73
2023-05-23T06:13:48.301Z,10.93
2023-05-23T06:16:15.382Z,11.13
2023-05-23T06:18:42.243Z,10.57
2023-05-23T06:21:09.419Z,11.50
2023-05-23T06:23:36.180Z,11.93
2023-05-23T06:26:02.964Z,10.43
2023-05-23T06:28:29.529Z,10.52
2023-05-23T06:30:56.080Z,10.13
2023-05-23T06:33:22.675Z,9.15
2023-05-23T06:35:49.634Z,9.27
2023-05-23T06:38:17.794Z,9.82
2023-05-23T06:40:44.609Z,10.18
2023-05-23T06:43:11.417Z,9.65
2023-05-23T06:45:38.734Z,9.90
2023-05-23T06:48:05.896Z,10.15
2023-05-23T06:50:32.673Z,10.55
2023-05-23T06:52:59.232Z,9.57
2023-05-23T06:55:25.893Z,8.75
2023-05-23T06:57:52.573Z,9.32
2023-05-23T07:00:19.516Z,8.77
2023-05-23T07:02:48.697Z,7.93
2023-05-23T07:05:16.313Z,8.50
2023-05-23T07:07:44.258Z,7.72
2023-05-23T07:10:11.098Z,8.02
2023-05-23T07:12:40.188Z,8.00
2023-05-23T07:15:07.971Z,7.57
2023-05-23T07:17:36.332Z,8.05
2023-05-23T07:20:04.643Z,8.38
2023-05-23T07:22:31.580Z,7.05
2023-05-23T07:24:58.211Z,8.00
2023-05-23T07:27:25.092Z,8.70
2023-05-23T07:29:51.821Z,7.03
2023-05-23T07:32:18.543Z,7.50
2023-05-23T07:34:45.834Z,7.63
2023-05-23T07:37:12.421Z,7.25
2023-05-23T07:39:38.994Z,7.18
2023-05-23T07:42:05.727Z,6.82
2023-05-23T07:44:32.396Z,6.75
2023-05-23T07:46:59.035Z,6.82
2023-05-23T07:49:25.820Z,6.38
2023-05-23T07:51:52.420Z,6.78
2023-05-23T07:54:18.985Z,6.45
2023-05-23T07:56:45.854Z,6.28
2023-05-23T07:59:13.378Z,5.70
2023-05-23T08:01:40.482Z,5.50
2023-05-23T08:04:07.289Z,6.15
2023-05-23T08:06:33.928Z,5.85
2023-05-23T08:09:01.783Z,5.80
2023-05-23T08:11:30.385Z,5.72
2023-05-23T08:13:58.052Z,5.30
2023-05-23T08:16:28.008Z,5.85
2023-05-23T08:18:54.730Z,5.88
2023-05-23T08:21:21.345Z,5.55
2023-05-23T08:23:48.288Z,5.25
2023-05-23T08:26:15.617Z,5.53
2023-05-23T08:28:42.160Z,4.93
2023-05-23T08:31:08.741Z,5.07
2023-05-23T08:33:35.394Z,5.15
2023-05-23T08:36:01.987Z,5.57
2023-05-23T08:38:28.610Z,5.32
2023-05-23T08:40:56.782Z,5.63
2023-05-23T08:43:23.489Z,5.15
2023-05-23T08:45:52.345Z,5.57
2023-05-23T08:48:21.206Z,5.47
2023-05-23T08:50:49.628Z,5.03
2023-05-23T08:53:20.537Z,5.22
2023-05-23T08:55:55.862Z,4.43
2023-05-23T08:58:24.803Z,5.32
2023-05-23T09:00:53.770Z,4.30
2023-05-23T09:03:21.274Z,4.93
2023-05-23T09:05:50.144Z,4.43
2023-05-23T09:08:16.902Z,4.25
2023-05-23T09:10:43.766Z,4.00
2023-05-23T09:13:10.517Z,4.53
2023-05-23T09:15:37.701Z,4.43
2023-05-23T09:18:04.419Z,3.85
2023-05-23T09:20:31.080Z,4.30
2023-05-23T09:22:57.700Z,3.63
2023-05-23T09:25:24.328Z,4.60
2023-05-23T09:27:53.474Z,4.30
2023-05-23T09:30:20.128Z,4.50
2023-05-23T09:32:59.438Z,4.45
2023-05-23T09:35:28.606Z,4.75
2023-05-23T09:37:59.055Z,4.78
2023-05-23T09:40:33.266Z,4.07
2023-05-23T09:43:04.814Z,3.70
2023-05-23T09:45:32.545Z,3.85
2023-05-23T09:47:59.307Z,4.07
2023-05-23T09:50:32.378Z,4.07
2023-05-23T09:53:00.394Z,4.25
2023-05-23T09:55:27.447Z,4.82
2023-05-23T09:57:56.824Z,3.67
2023-05-23T10:00:27.213Z,4.25
2023-05-23T10:03:13.206Z,3.90
2023-05-23T10:05:51.973Z,3.97
2023-05-23T10:08:36.565Z,3.58
2023-05-23T10:11:16.629Z,4.07
2023-05-23T10:13:49.462Z,3.72
2023-05-23T10:16:31.509Z,3.20
2023-05-23T10:19:04.275Z,3.45
2023-05-23T10:21:36.171Z,3.58
2023-05-23T10:24:07.277Z,3.80
2023-05-23T10:26:33.992Z,4.35
2023-05-23T10:29:01.262Z,3.40
2023-05-23T10:31:29.277Z,3.53
2023-05-23T10:34:15.473Z,3.35
2023-05-23T10:36:51.012Z,3.63
2023-05-23T10:39:35.694Z,3.70
2023-05-23T10:42:10.051Z,3.20
2023-05-23T10:44:36.672Z,3.22
2023-05-23T10:47:04.512Z,3.10
2023-05-23T10:49:42.107Z,3.58
2023-05-23T10:52:10.983Z,3.53
2023-05-23T10:54:50.566Z,3.42
2023-05-23T10:57:19.883Z,3.00
2023-05-23T10:59:47.482Z,3.42
2023-05-23T11:02:16.387Z,3.08
2023-05-23T11:04:43.445Z,3.60
2023-05-23T11:07:30.474Z,3.17
2023-05-23T11:10:23.643Z,3.00
2023-05-23T11:12:50.261Z,3.78
2023-05-23T11:15:16.785Z,3.90
2023-05-23T11:17:53.617Z,3.75
2023-05-23T11:20:23.641Z,3.42
2023-05-23T11:22:55.322Z,3.40
2023-05-23T11:25:39.153Z,3.25
2023-05-23T11:28:06.285Z,3.67
2023-05-23T11:30:33.764Z,3.50
2023-05-23T11:33:00.643Z,3.67
2023-05-23T11:35:28.220Z,3.50
2023-05-23T11:37:57.845Z,2.97
2023-05-23T11:40:46.443Z,3.30
2023-05-23T11:43:17.908Z,3.92
2023-05-23T11:45:46.980Z,3.17
2023-05-23T11:48:16.669Z,2.95
2023-05-23T11:50:53.795Z,2.80
2023-05-23T11:53:22.600Z,2.92
2023-05-23T11:55:57.739Z,2.78
2023-05-23T11:58:30.515Z,2.85
2023-05-23T12:01:08.322Z,2.72
2023-05-23T12:03:36.128Z,2.80
2023-05-23T12:06:03.019Z,3.00
2023-05-23T12:08:29.924Z,2.65
2023-05-23T12:11:01.470Z,2.92
2023-05-23T12:13:31.691Z,2.60
2023-05-23T12:16:00.762Z,2.72
2023-05-23T12:18:32.601Z,2.80
2023-05-23T12:21:05.804Z,2.42
2023-05-23T12:23:35.063Z,3.30
2023-05-23T12:26:07.073Z,2.70
2023-05-23T12:28:41.148Z,2.85
2023-05-23T12:31:16.242Z,2.78
2023-05-23T12:33:45.360Z,2.55
2023-05-23T12:36:12.412Z,2.60
2023-05-23T12:38:40.897Z,3.03
2023-05-23T12:41:09.549Z,2.75
2023-05-23T12:43:49.646Z,2.45
2023-05-23T12:46:16.301Z,3.10
2023-05-23T12:48:42.948Z,2.65
2023-05-23T12:51:09.525Z,2.38
2023-05-23T12:53:36.609Z,2.60
2023-05-23T12:56:03.760Z,2.08
2023-05-23T12:58:31.424Z,2.60
2023-05-23T13:00:59.184Z,2.92
2023-05-23T13:03:26.087Z,2.22
2023-05-23T13:05:53.875Z,2.45
2023-05-23T13:08:21.248Z,2.83
2023-05-23T13:10:48.279Z,2.65
2023-05-23T13:13:15.301Z,2.60
2023-05-23T13:15:42.473Z,2.85
2023-05-23T13:18:09.651Z,2.22
2023-05-23T13:20:36.308Z,2.45
2023-05-23T13:23:03.686Z,2.40
2023-05-23T13:25:30.422Z,2.30
2023-05-23T13:27:57.374Z,2.30
2023-05-23T13:30:24.706Z,2.53
2023-05-23T13:32:52.134Z,2.05
2023-05-23T13:35:18.953Z,2.42
2023-05-23T13:37:45.726Z,2.63
2023-05-23T13:40:18.238Z,2.08
2023-05-23T13:42:45.923Z,2.13
2023-05-23T13:45:12.555Z,2.30
2023-05-23T13:47:39.215Z,2.08
2023-05-23T13:50:07.368Z,2.15
2023-05-23T13:52:34.114Z,2.30
2023-05-23T13:55:01.681Z,2.00
2023-05-23T13:57:28.311Z,2.97
2023-05-23T13:59:54.852Z,2.70
2023-05-23T14:02:22.796Z,2.60
2023-05-23T14:04:50.190Z,2.17
2023-05-23T14:07:18.466Z,2.08
2023-05-23T14:09:45.400Z,1.73
2023-05-23T14:12:11.971Z,2.15
2023-05-23T14:14:38.540Z,3.30
2023-05-23T14:17:05.824Z,2.22
2023-05-23T14:19:32.614Z,2.80
2023-05-23T14:21:59.499Z,2.03
2023-05-23T14:24:26.169Z,2.50
2023-05-23T14:26:52.760Z,2.67
2023-05-23T14:29:20.835Z,2.22
2023-05-23T14:31:47.468Z,1.80
2023-05-23T14:34:14.126Z,1.90
2023-05-23T14:36:41.084Z,1.90
2023-05-23T14:39:10.653Z,2.05
2023-05-23T14:41:37.679Z,2.35
2023-05-23T14:44:05.592Z,1.80
2023-05-23T14:46:32.495Z,2.20
2023-05-23T14:48:59.111Z,1.95
2023-05-23T14:51:43.233Z,1.83
2023-05-23T14:54:12.520Z,2.65
2023-05-23T14:56:41.212Z,1.75
2023-05-23T14:59:08.170Z,2.08
2023-05-23T15:01:35.714Z,2.20
2023-05-23T15:04:05.799Z,2.50
2023-05-23T15:06:32.463Z,2.20
2023-05-23T15:08:59.047Z,2.42
2023-05-23T15:11:27.730Z,2.13
2023-05-23T15:13:54.560Z,2.50
2023-05-23T15:16:21.935Z,2.42
2023-05-23T15:18:48.803Z,2.40
2023-05-23T15:21:15.628Z,2.25
2023-05-23T15:23:42.239Z,2.50
2023-05-23T15:26:08.892Z,2.00
2023-05-23T15:28:35.478Z,1.90
2023-05-23T15:31:02.202Z,1.85
2023-05-23T15:33:28.795Z,2.38
2023-05-23T15:35:55.981Z,1.88
2023-05-23T15:38:22.572Z,2.20
2023-05-23T15:40:49.379Z,1.92
2023-05-23T15:43:16.001Z,2.33
2023-05-23T15:45:43.289Z,1.98
2023-05-23T15:48:09.955Z,2.10
2023-05-23T15:50:36.699Z,1.95
2023-05-23T15:53:03.265Z,2.17
2023-05-23T15:55:29.837Z,1.95
2023-05-23T15:57:56.457Z,2.00
2023-05-23T16:00:23.132Z,1.98
2023-05-23T16:02:49.835Z,1.95
2023-05-23T16:05:16.587Z,2.33
2023-05-23T16:07:43.264Z,2.45
2023-05-23T16:10:10.255Z,2.00
2023-05-23T16:12:36.874Z,2.28
2023-05-23T16:15:03.726Z,2.42
2023-05-23T16:17:30.324Z,2.58
2023-05-23T16:19:57.069Z,2.17
2023-05-23T16:22:23.863Z,2.03
2023-05-23T16:24:50.486Z,2.50
2023-05-23T16:27:17.106Z,1.92
2023-05-23T16:29:44.226Z,2.20
2023-05-23T16:32:11.034Z,2.45
2023-05-23T16:34:37.692Z,2.40
2023-05-23T16:37:04.441Z,1.73
2023-05-23T16:39:31.434Z,2.13
2023-05-23T16:42:00.301Z,2.30
2023-05-23T16:44:27.258Z,2.72
2023-05-23T16:46:54.041Z,1.92
2023-05-23T16:49:21.108Z,2.42
2023-05-23T16:51:49.205Z,2.33
2023-05-23T16:54:16.767Z,2.20
2023-05-23T16:56:43.654Z,1.90
2023-05-23T16:59:10.237Z,1.88
2023-05-23T17:01:36.926Z,2.00
2023-05-23T17:04:04.555Z,2.08
2023-05-23T17:06:31.438Z,2.05
2023-05-23T17:08:58.040Z,1.80
2023-05-23T17:11:25.496Z,2.30
2023-05-23T17:13:52.289Z,2.10
2023-05-23T17:16:20.684Z,2.35
2023-05-23T17:18:47.732Z,1.98
2023-05-23T17:21:14.344Z,1.83
2023-05-23T17:23:41.035Z,2.05
2023-05-23T17:26:07.690Z,1.85
2023-05-23T17:28:34.245Z,1.70
2023-05-23T17:31:01.012Z,2.13
2023-05-23T17:33:27.694Z,2.38
2023-05-23T17:35:54.317Z,2.00
2023-05-23T17:38:20.927Z,2.45
2023-05-23T17:40:47.596Z,1.80
2023-05-23T17:43:14.235Z,4.18
2023-05-23T17:45:41.507Z,2.85
2023-05-23T17:48:08.216Z,2.88
2023-05-23T17:50:34.828Z,4.05
2023-05-23T17:53:04.105Z,4.43
2023-05-23T17:55:31.067Z,2.70
2023-05-23T17:57:57.775Z,2.60
2023-05-23T18:00:24.512Z,2.55
2023-05-23T18:02:51.942Z,5.47
2023-05-23T18:05:21.219Z,3.20
2023-05-23T18:07:47.782Z,1.88
2023-05-23T18:10:14.468Z,2.28
2023-05-23T18:12:41.187Z,2.20
2023-05-23T18:15:08.948Z,2.17
2023-05-23T18:17:36.138Z,2.00
2023-05-23T18:20:02.912Z,3.15
2023-05-23T18:22:31.744Z,2.17
2023-05-23T18:24:58.392Z,1.85
2023-05-23T18:27:25.088Z,2.17
2023-05-23T18:29:51.735Z,1.92
2023-05-23T18:32:18.408Z,2.35
2023-05-23T18:34:44.976Z,1.80
2023-05-23T18:37:11.590Z,2.00
2023-05-23T18:39:38.715Z,1.83
2023-05-23T18:42:05.725Z,2.15
2023-05-23T18:44:32.381Z,2.63
2023-05-23T18:46:59.059Z,2.15
2023-05-23T18:49:25.693Z,2.40
2023-05-23T18:51:54.428Z,2.20
2023-05-23T18:54:21.275Z,2.40
2023-05-23T18:56:47.889Z,2.65
2023-05-23T18:59:15.928Z,2.47
2023-05-23T19:01:42.738Z,3.20
2023-05-23T19:04:10.036Z,3.50
2023-05-23T19:06:36.907Z,2.97
2023-05-23T19:09:09.427Z,3.15
2023-05-23T19:11:37.406Z,3.00
2023-05-23T19:14:04.182Z,3.22
2023-05-23T19:16:31.431Z,2.83
2023-05-23T19:18:58.105Z,2.38
2023-05-23T19:21:24.702Z,2.30
2023-05-23T19:23:51.520Z,2.53
2023-05-23T19:26:19.890Z,1.98
2023-05-23T19:28:47.098Z,2.20
2023-05-23T19:31:13.715Z,1.90
2023-05-23T19:33:40.394Z,1.83
2023-05-23T19:36:06.978Z,2.67
2023-05-23T19:38:33.611Z,2.05
2023-05-23T19:41:00.197Z,2.80
2023-05-23T19:43:27.110Z,2.80
2023-05-23T19:45:53.710Z,1.90
2023-05-23T19:48:20.764Z,2.47
2023-05-23T19:50:47.652Z,2.28
2023-05-23T19:53:14.720Z,2.50
2023-05-23T19:55:42.789Z,2.40
2023-05-23T19:58:09.434Z,3.72
2023-05-23T20:00:36.327Z,2.78
2023-05-23T20:03:03.671Z,2.88
2023-05-23T20:05:30.349Z,4.45
2023-05-23T20:07:57.233Z,3.05
2023-05-23T20:10:25.016Z,3.15
2023-05-23T20:12:51.651Z,2.42
2023-05-23T20:15:27.676Z,1.48
2023-05-23T20:18:05.910Z,1.90
2023-05-23T20:20:32.771Z,1.73
2023-05-23T20:22:59.409Z,2.22
2023-05-23T20:25:28.911Z,1.70
2023-05-23T20:27:58.646Z,2.08
2023-05-23T20:30:25.416Z,1.85
2023-05-23T20:32:54.164Z,1.58
2023-05-23T20:35:22.271Z,1.65
2023-05-23T20:37:51.685Z,1.88
2023-05-23T20:40:18.478Z,1.77
2023-05-23T20:42:48.019Z,1.67
2023-05-23T20:45:15.560Z,1.80
2023-05-23T20:47:42.724Z,2.08
2023-05-23T20:50:11.190Z,2.03
2023-05-23T20:52:41.431Z,2.25
2023-05-23T20:55:08.944Z,1.90
2023-05-23T20:57:38.096Z,1.70
2023-05-23T21:00:12.343Z,1.65
2023-05-23T21:05:07.554Z,2.25
2023-05-23T21:07:34.627Z,1.80
2023-05-23T21:10:03.656Z,1.48
2023-05-23T21:12:30.930Z,1.73
2023-05-23T21:15:03.015Z,1.85
2023-05-23T21:17:32.464Z,1.77
2023-05-23T21:19:59.774Z,2.38
2023-05-23T21:22:27.035Z,2.97
2023-05-23T21:24:54.180Z,1.88
2023-05-23T21:27:21.360Z,1.58
2023-05-23T21:29:48.083Z,2.08
2023-05-23T21:32:14.721Z,1.70
2023-05-23T21:34:41.676Z,2.17
2023-05-23T21:37:08.237Z,1.58
2023-05-23T21:39:50.069Z,2.13
2023-05-23T21:42:19.671Z,2.08
2023-05-23T21:44:46.855Z,2.50
2023-05-23T21:47:16.954Z,2.40
2023-05-23T21:49:43.585Z,1.80
2023-05-23T21:52:10.199Z,2.42
2023-05-23T21:54:36.757Z,2.00
2023-05-23T21:57:05.275Z,2.20
2023-05-23T21:59:31.879Z,2.10
2023-05-23T22:01:58.570Z,1.73
2023-05-23T22:04:25.325Z,2.00
2023-05-23T22:06:52.738Z,2.05
2023-05-23T22:09:20.089Z,1.98
2023-05-23T22:11:46.760Z,2.22
2023-05-23T22:14:13.776Z,2.15
2023-05-23T22:16:40.843Z,2.22
2023-05-23T22:19:10.028Z,2.88
2023-05-23T22:21:36.956Z,2.78
2023-05-23T22:24:03.851Z,2.38
2023-05-23T22:26:30.724Z,2.15
2023-05-23T22:28:57.371Z,2.38
2023-05-23T22:31:24.271Z,1.90
2023-05-23T22:33:51.398Z,1.95
2023-05-23T22:36:18.089Z,2.30
2023-05-23T22:38:44.941Z,2.00
2023-05-23T22:41:11.709Z,1.42
2023-05-23T22:43:38.613Z,1.85
2023-05-23T22:46:05.541Z,2.00
2023-05-23T22:48:33.829Z,1.98
2023-05-23T22:51:02.267Z,2.25
2023-05-23T22:53:29.965Z,2.72
2023-05-23T22:55:56.881Z,2.63
2023-05-23T22:58:23.491Z,1.98
2023-05-23T23:00:50.253Z,1.90
2023-05-23T23:03:17.035Z,2.55
2023-05-23T23:05:44.412Z,2.17
2023-05-23T23:08:11.078Z,2.13
2023-05-23T23:10:38.698Z,2.42
2023-05-23T23:13:05.386Z,2.63
2023-05-23T23:15:33.893Z,2.78
2023-05-23T23:18:01.263Z,2.25
2023-05-23T23:20:28.334Z,2.72
2023-05-23T23:22:55.055Z,2.75
2023-05-23T23:25:22.109Z,2.33
2023-05-23T23:27:48.853Z,2.42
2023-05-23T23:30:15.741Z,2.25
2023-05-23T23:32:42.386Z,2.80
2023-05-23T23:35:09.216Z,2.75
2023-05-23T23:37:35.844Z,2.17
2023-05-23T23:40:02.597Z,2.40
2023-05-23T23:42:29.191Z,2.28
2023-05-23T23:44:56.363Z,1.67
2023-05-23T23:47:22.971Z,2.08
2023-05-23T23:49:49.594Z,2.30
2023-05-23T23:52:16.284Z,2.28
2023-05-23T23:54:42.987Z,2.38
2023-05-23T23:57:13.835Z,2.10
2023-05-23T23:59:44.187Z,1.90
